createdAt,value
2018-02-25T00:00:40.209Z,90.26
2018-02-25T00:01:40.189Z,90.16
2018-02-25T00:02:40.154Z,90.26
2018-02-25T00:03:40.126Z,90.35
2018-02-25T00:04:40.109Z,90.07
2018-02-25T00:05:40.102Z,90.26
2018-02-25T00:06:39.785Z,90.35
2018-02-25T00:07:39.769Z,90.07
2018-02-25T00:08:40.003Z,90.26
2018-02-25T00:09:39.971Z,90.26
2018-02-25T00:10:39.977Z,89.59
2018-02-25T00:11:39.654Z,89.31
2018-02-25T00:12:39.895Z,89.59
2018-02-25T00:13:39.865Z,89.31
2018-02-25T00:14:39.840Z,89.59
2018-02-25T00:15:39.549Z,89.78
2018-02-25T00:16:39.517Z,90.16
2018-02-25T00:17:39.759Z,90.26
2018-02-25T00:18:39.827Z,90.35
2018-02-25T00:19:39.705Z,89.97
2018-02-25T00:20:39.410Z,89.97
2018-02-25T00:21:39.647Z,90.07
2018-02-25T00:22:39.622Z,89.97
2018-02-25T00:23:39.333Z,90.35
2018-02-25T00:24:39.302Z,90.16
2018-02-25T00:25:39.280Z,90.45
2018-02-25T00:26:39.251Z,90.45
2018-02-25T00:27:39.227Z,89.88
2018-02-25T00:28:39.204Z,90.16
2018-02-25T00:29:39.176Z,90.26
2018-02-25T00:30:39.415Z,90.45
2018-02-25T00:31:39.390Z,91.2
2018-02-25T00:32:39.094Z,91.01
2018-02-25T00:33:39.065Z,90.73
2018-02-25T00:34:39.035Z,91.58
2018-02-25T00:35:39.274Z,91.11
2018-02-25T00:36:38.984Z,91.3
2018-02-25T00:37:39.231Z,91.01
2018-02-25T00:38:39.195Z,92.24
2018-02-25T00:39:38.916Z,91.58
2018-02-25T00:40:39.142Z,91.01
2018-02-25T00:41:38.851Z,91.49
2018-02-25T00:42:38.824Z,91.86
2018-02-25T00:43:39.073Z,91.67
2018-02-25T00:44:38.772Z,92.14
2018-02-25T00:45:38.745Z,92.43
2018-02-25T00:46:38.718Z,92.99
2018-02-25T00:47:38.953Z,93.47
2018-02-25T00:48:38.930Z,93.18
2018-02-25T00:49:38.899Z,92.99
2018-02-25T00:50:38.872Z,92.99
2018-02-25T00:51:38.847Z,93.56
2018-02-25T00:52:38.556Z,93.47
2018-02-25T00:53:38.527Z,94.22
2018-02-25T00:54:38.500Z,93.37
2018-02-25T00:55:38.742Z,94.13
2018-02-25T00:56:38.453Z,94.7
2018-02-25T00:57:38.426Z,94.89
2018-02-25T00:58:38.396Z,94.51
2018-02-25T00:59:38.367Z,95.45
2018-02-25T01:00:38.352Z,95.26
2018-02-25T01:01:38.578Z,94.51
2018-02-25T01:02:38.289Z,95.45
2018-02-25T01:03:38.525Z,94.98
2018-02-25T01:04:38.237Z,94.6
2018-02-25T01:05:38.206Z,95.17
2018-02-25T01:06:38.457Z,95.45
2018-02-25T01:07:38.165Z,94.7
2018-02-25T01:08:38.126Z,94.7
2018-02-25T01:09:38.108Z,95.54
2018-02-25T01:10:38.343Z,95.83
2018-02-25T01:11:38.326Z,95.17
2018-02-25T01:12:38.018Z,95.07
2018-02-25T01:13:37.987Z,94.7
2018-02-25T01:14:38.228Z,94.51
2018-02-25T01:15:38.201Z,94.7
2018-02-25T01:16:37.906Z,95.26
2018-02-25T01:17:37.880Z,95.45
2018-02-25T01:18:37.853Z,94.7
2018-02-25T01:19:38.305Z,94.51
2018-02-25T01:20:38.074Z,94.6
2018-02-25T01:21:37.774Z,94.41
2018-02-25T01:22:38.019Z,94.79
2018-02-25T01:23:37.987Z,94.41
2018-02-25T01:24:37.693Z,95.64
2018-02-25T01:25:37.934Z,95.17
2018-02-25T01:26:37.904Z,95.83
2018-02-25T01:27:37.880Z,96.01
2018-02-25T01:28:37.584Z,95.92
2018-02-25T01:29:37.557Z,96.2
2018-02-25T01:30:37.801Z,96.77
2018-02-25T01:31:37.774Z,96.68
2018-02-25T01:32:37.744Z,96.77
2018-02-25T01:33:37.714Z,96.39
2018-02-25T01:34:37.424Z,96.01
2018-02-25T01:35:37.397Z,96.01
2018-02-25T01:36:37.368Z,95.73
2018-02-25T01:37:37.610Z,96.2
2018-02-25T01:38:37.583Z,95.92
2018-02-25T01:39:37.287Z,95.36
2018-02-25T01:40:37.263Z,95.92
2018-02-25T01:41:37.235Z,95.54
2018-02-25T01:42:37.207Z,95.07
2018-02-25T01:43:37.444Z,94.41
2018-02-25T01:44:37.418Z,94.98
2018-02-25T01:45:37.139Z,94.51
2018-02-25T01:46:37.374Z,94.89
2018-02-25T01:47:37.071Z,95.54
2018-02-25T01:48:37.056Z,95.73
2018-02-25T01:49:37.343Z,95.64
2018-02-25T01:50:37.262Z,95.92
2018-02-25T01:51:36.962Z,95.26
2018-02-25T01:52:37.201Z,95.26
2018-02-25T01:53:37.175Z,95.92
2018-02-25T01:54:36.882Z,95.92
2018-02-25T01:55:37.128Z,95.17
2018-02-25T01:56:37.103Z,95.26
2018-02-25T01:57:37.068Z,94.6
2018-02-25T01:58:36.776Z,95.07
2018-02-25T01:59:37.009Z,94.89
2018-02-25T02:00:36.985Z,94.41
2018-02-25T02:01:36.696Z,94.13
2018-02-25T02:02:36.983Z,94.51
2018-02-25T02:03:36.638Z,95.07
2018-02-25T02:04:36.873Z,95.07
2018-02-25T02:05:36.589Z,95.54
2018-02-25T02:06:36.821Z,95.73
2018-02-25T02:07:36.528Z,95.26
2018-02-25T02:08:36.503Z,95.07
2018-02-25T02:09:36.743Z,95.26
2018-02-25T02:10:36.446Z,95.59
2018-02-25T02:11:36.690Z,95.12
2018-02-25T02:12:36.391Z,95.87
2018-02-25T02:13:36.364Z,95.87
2018-02-25T02:14:36.604Z,96.06
2018-02-25T02:15:36.571Z,95.68
2018-02-25T02:16:36.549Z,95.4
2018-02-25T02:17:36.533Z,95.68
2018-02-25T02:18:36.489Z,95.59
2018-02-25T02:19:36.471Z,95.03
2018-02-25T02:20:36.440Z,95.78
2018-02-25T02:21:36.148Z,94.93
2018-02-25T02:22:36.116Z,94.84
2018-02-25T02:23:36.401Z,94.55
2018-02-25T02:24:36.075Z,95.03
2018-02-25T02:25:36.302Z,94.46
2018-02-25T02:26:36.331Z,95.21
2018-02-25T02:27:36.248Z,95.21
2018-02-25T02:28:36.218Z,95.78
2018-02-25T02:29:35.924Z,95.87
2018-02-25T02:30:36.164Z,95.31
2018-02-25T02:31:36.145Z,95.03
2018-02-25T02:32:35.844Z,95.21
2018-02-25T02:33:36.080Z,94.65
2018-02-25T02:34:35.790Z,94.46
2018-02-25T02:35:35.764Z,94.27
2018-02-25T02:36:36.011Z,94.55
2018-02-25T02:37:35.705Z,94.27
2018-02-25T02:38:35.972Z,94.46
2018-02-25T02:39:35.928Z,94.18
2018-02-25T02:40:35.624Z,93.8
2018-02-25T02:41:35.869Z,94.46
2018-02-25T02:42:35.837Z,94.65
2018-02-25T02:43:35.809Z,94.65
2018-02-25T02:44:35.518Z,94.46
2018-02-25T02:45:35.755Z,95.12
2018-02-25T02:46:35.459Z,95.4
2018-02-25T02:47:35.700Z,94.55
2018-02-25T02:48:35.406Z,94.55
2018-02-25T02:49:35.648Z,95.78
2018-02-25T02:50:35.619Z,95.59
2018-02-25T02:51:35.322Z,95.03
2018-02-25T02:52:35.573Z,95.4
2018-02-25T02:53:35.542Z,94.55
2018-02-25T02:54:35.515Z,94.46
2018-02-25T02:55:35.481Z,95.12
2018-02-25T02:56:35.452Z,94.65
2018-02-25T02:57:35.163Z,95.4
2018-02-25T02:58:35.400Z,95.59
2018-02-25T02:59:35.102Z,95.59
2018-02-25T03:00:35.345Z,95.03
2018-02-25T03:01:35.325Z,95.12
2018-02-25T03:02:35.283Z,95.21
2018-02-25T03:03:35.274Z,96.06
2018-02-25T03:04:35.236Z,95.68
2018-02-25T03:05:35.211Z,95.59
2018-02-25T03:06:34.914Z,95.59
2018-02-25T03:07:35.152Z,95.68
2018-02-25T03:08:34.861Z,95.59
2018-02-25T03:09:35.091Z,95.59
2018-02-25T03:10:34.800Z,95.97
2018-02-25T03:11:35.039Z,95.87
2018-02-25T03:12:34.748Z,95.5
2018-02-25T03:13:34.723Z,95.78
2018-02-25T03:14:34.964Z,95.68
2018-02-25T03:15:34.666Z,96.15
2018-02-25T03:16:34.900Z,95.97
2018-02-25T03:17:34.625Z,95.97
2018-02-25T03:18:34.591Z,95.87
2018-02-25T03:19:35.026Z,95.87
2018-02-25T03:20:34.523Z,95.78
2018-02-25T03:21:34.766Z,96.34
2018-02-25T03:22:34.472Z,95.97
2018-02-25T03:23:34.446Z,96.25
2018-02-25T03:24:34.675Z,96.15
2018-02-25T03:25:34.658Z,95.87
2018-02-25T03:26:34.626Z,95.87
2018-02-25T03:27:34.613Z,95.5
2018-02-25T03:28:34.305Z,97
2018-02-25T03:29:34.546Z,97.38
2018-02-25T03:30:34.524Z,97.38
2018-02-25T03:31:34.225Z,96.63
2018-02-25T03:32:34.193Z,96.81
2018-02-25T03:33:34.438Z,97
2018-02-25T03:34:34.141Z,97.57
2018-02-25T03:35:34.111Z,97.38
2018-02-25T03:36:34.349Z,97.1
2018-02-25T03:37:34.062Z,97.38
2018-02-25T03:38:34.297Z,97.85
2018-02-25T03:39:34.264Z,98.14
2018-02-25T03:40:33.973Z,98.14
2018-02-25T03:41:33.946Z,97.29
2018-02-25T03:42:34.184Z,97.57
2018-02-25T03:43:34.153Z,98.52
2018-02-25T03:44:34.130Z,98.33
2018-02-25T03:45:33.832Z,98.71
2018-02-25T03:46:34.072Z,99.37
2018-02-25T03:47:34.044Z,98.9
2018-02-25T03:48:34.015Z,98.99
2018-02-25T03:49:33.987Z,99.18
2018-02-25T03:50:33.962Z,99.84
2018-02-25T03:51:33.935Z,99.84
2018-02-25T03:52:33.914Z,99.84
2018-02-25T03:53:33.876Z,99.74
2018-02-25T03:54:33.866Z,99.74
2018-02-25T03:55:33.555Z,99.93
2018-02-25T03:56:33.530Z,99.99
2018-02-25T03:57:33.769Z,99.99
2018-02-25T03:58:33.736Z,99.99
2018-02-25T03:59:33.715Z,99.99
2018-02-25T04:00:33.416Z,99.99
2018-02-25T04:01:33.656Z,99.99
2018-02-25T04:02:33.626Z,99.99
2018-02-25T04:03:33.338Z,99.99
2018-02-25T04:04:33.358Z,99.99
2018-02-25T04:05:33.547Z,99.99
2018-02-25T04:06:33.524Z,99.99
2018-02-25T04:07:33.224Z,99.99
2018-02-25T04:08:33.217Z,99.99
2018-02-25T04:09:33.483Z,99.99
2018-02-25T04:10:33.414Z,99.99
2018-02-25T04:11:33.397Z,99.99
2018-02-25T04:12:33.360Z,99.99
2018-02-25T04:13:33.056Z,99.99
2018-02-25T04:14:33.028Z,99.99
2018-02-25T04:15:33.275Z,99.99
2018-02-25T04:16:33.247Z,99.99
2018-02-25T04:17:32.942Z,99.99
2018-02-25T04:18:32.915Z,99.99
2018-02-25T04:19:33.152Z,99.99
2018-02-25T04:20:32.861Z,99.99
2018-02-25T04:21:33.119Z,99.99
2018-02-25T04:22:32.805Z,99.99
2018-02-25T04:23:32.775Z,99.99
2018-02-25T04:24:32.748Z,99.99
2018-02-25T04:25:32.722Z,99.99
2018-02-25T04:26:32.957Z,99.99
2018-02-25T04:27:32.932Z,99.99
2018-02-25T04:28:32.903Z,99.99
2018-02-25T04:29:32.610Z,99.99
2018-02-25T04:30:32.847Z,99.99
2018-02-25T04:31:32.553Z,99.99
2018-02-25T04:32:32.527Z,99.99
2018-02-25T04:33:32.764Z,99.99
2018-02-25T04:34:32.471Z,99.99
2018-02-25T04:35:32.704Z,99.99
2018-02-25T04:36:32.411Z,99.99
2018-02-25T04:37:32.652Z,99.99
2018-02-25T04:38:32.360Z,99.99
2018-02-25T04:39:32.328Z,99.99
2018-02-25T04:40:32.566Z,99.99
2018-02-25T04:41:32.538Z,99.99
2018-02-25T04:42:32.246Z,99.99
2018-02-25T04:43:32.218Z,99.99
2018-02-25T04:44:32.190Z,99.99
2018-02-25T04:45:32.163Z,99.99
2018-02-25T04:46:32.423Z,99.99
2018-02-25T04:47:32.381Z,99.99
2018-02-25T04:48:32.341Z,99.99
2018-02-25T04:49:32.054Z,99.99
2018-02-25T04:50:32.296Z,99.99
2018-02-25T04:51:31.997Z,99.99
2018-02-25T04:52:32.234Z,99.99
2018-02-25T04:53:32.200Z,99.99
2018-02-25T04:54:31.913Z,99.99
2018-02-25T04:55:32.155Z,99.99
2018-02-25T04:56:31.855Z,99.99
2018-02-25T04:57:32.108Z,99.99
2018-02-25T04:58:32.073Z,99.99
2018-02-25T04:59:31.776Z,99.99
2018-02-25T05:00:31.745Z,99.99
2018-02-25T05:01:31.713Z,99.99
2018-02-25T05:02:31.686Z,99.99
2018-02-25T05:03:31.657Z,99.99
2018-02-25T05:04:31.629Z,99.99
2018-02-25T05:05:31.601Z,99.99
2018-02-25T05:06:31.576Z,99.99
2018-02-25T05:07:31.812Z,99.99
2018-02-25T05:08:31.526Z,99.99
2018-02-25T05:09:31.752Z,99.99
2018-02-25T05:10:31.460Z,99.99
2018-02-25T05:11:31.699Z,99.99
2018-02-25T05:12:31.668Z,99.99
2018-02-25T05:13:31.644Z,99.99
2018-02-25T05:14:31.612Z,99.99
2018-02-25T05:15:31.319Z,99.99
2018-02-25T05:16:31.558Z,99.99
2018-02-25T05:17:31.260Z,99.99
2018-02-25T05:18:31.233Z,99.99
2018-02-25T05:19:31.876Z,99.99
2018-02-25T05:20:31.177Z,99.99
2018-02-25T05:21:31.150Z,99.99
2018-02-25T05:22:31.122Z,99.99
2018-02-25T05:23:31.356Z,99.99
2018-02-25T05:24:31.065Z,99.99
2018-02-25T05:25:31.305Z,99.99
2018-02-25T05:26:31.027Z,99.99
2018-02-25T05:27:31.039Z,99.99
2018-02-25T05:28:31.221Z,99.99
2018-02-25T05:29:31.190Z,99.99
2018-02-25T05:30:30.897Z,99.99
2018-02-25T05:31:30.866Z,99.99
2018-02-25T05:32:31.105Z,99.99
2018-02-25T05:33:31.088Z,99.99
2018-02-25T05:34:31.050Z,99.99
2018-02-25T05:35:31.028Z,99.99
2018-02-25T05:36:31.006Z,99.99
2018-02-25T05:37:30.974Z,99.99
2018-02-25T05:38:30.943Z,99.99
2018-02-25T05:39:30.906Z,99.99
2018-02-25T05:40:30.612Z,99.99
2018-02-25T05:41:30.587Z,99.99
2018-02-25T05:42:30.555Z,99.99
2018-02-25T05:43:30.527Z,99.99
2018-02-25T05:44:30.533Z,99.99
2018-02-25T05:45:30.474Z,99.99
2018-02-25T05:46:30.440Z,99.99
2018-02-25T05:47:30.414Z,99.99
2018-02-25T05:48:30.386Z,99.99
2018-02-25T05:49:30.639Z,99.99
2018-02-25T05:50:30.593Z,99.99
2018-02-25T05:51:30.566Z,99.99
2018-02-25T05:52:30.535Z,99.99
2018-02-25T05:53:30.243Z,99.99
2018-02-25T05:54:30.480Z,99.99
2018-02-25T05:55:30.462Z,99.99
2018-02-25T05:56:30.164Z,99.99
2018-02-25T05:57:30.403Z,99.99
2018-02-25T05:58:30.366Z,99.99
2018-02-25T05:59:30.346Z,99.99
2018-02-25T06:00:30.048Z,99.99
2018-02-25T06:01:30.284Z,99.99
2018-02-25T06:02:30.256Z,99.99
2018-02-25T06:03:30.228Z,99.99
2018-02-25T06:04:29.946Z,99.99
2018-02-25T06:05:30.170Z,99.99
2018-02-25T06:06:29.900Z,99.99
2018-02-25T06:07:29.852Z,99.99
2018-02-25T06:08:30.085Z,99.99
2018-02-25T06:09:30.058Z,99.99
2018-02-25T06:10:29.764Z,99.99
2018-02-25T06:11:30.005Z,99.99
2018-02-25T06:12:29.971Z,99.99
2018-02-25T06:13:29.942Z,99.99
2018-02-25T06:14:29.913Z,99.99
2018-02-25T06:15:29.631Z,99.99
2018-02-25T06:16:29.597Z,99.99
2018-02-25T06:17:29.568Z,99.99
2018-02-25T06:18:29.806Z,99.99
2018-02-25T06:19:29.776Z,99.99
2018-02-25T06:20:29.482Z,99.99
2018-02-25T06:21:29.453Z,99.99
2018-02-25T06:22:29.688Z,99.99
2018-02-25T06:23:29.657Z,99.99
2018-02-25T06:24:29.645Z,99.99
2018-02-25T06:25:29.608Z,99.99
2018-02-25T06:26:29.313Z,99.99
2018-02-25T06:27:29.288Z,99.99
2018-02-25T06:28:29.257Z,99.99
2018-02-25T06:29:29.237Z,99.99
2018-02-25T06:30:29.460Z,99.99
2018-02-25T06:31:29.438Z,99.99
2018-02-25T06:32:29.140Z,99.99
2018-02-25T06:33:29.383Z,99.99
2018-02-25T06:34:29.095Z,99.99
2018-02-25T06:35:29.058Z,99.99
2018-02-25T06:36:29.294Z,99.99
2018-02-25T06:37:28.999Z,99.99
2018-02-25T06:38:28.976Z,99.99
2018-02-25T06:39:29.210Z,99.99
2018-02-25T06:40:29.178Z,99.99
2018-02-25T06:41:28.884Z,99.99
2018-02-25T06:42:29.128Z,99.99
2018-02-25T06:43:28.842Z,99.99
2018-02-25T06:44:28.797Z,99.99
2018-02-25T06:45:29.039Z,99.99
2018-02-25T06:46:29.012Z,99.99
2018-02-25T06:47:28.715Z,99.99
2018-02-25T06:48:28.689Z,99.99
2018-02-25T06:49:28.922Z,99.99
2018-02-25T06:50:28.894Z,99.99
2018-02-25T06:51:28.866Z,99.99
2018-02-25T06:52:28.571Z,99.99
2018-02-25T06:53:28.545Z,99.99
2018-02-25T06:54:28.787Z,99.99
2018-02-25T06:55:28.753Z,99.99
2018-02-25T06:56:28.458Z,99.99
2018-02-25T06:57:28.700Z,99.99
2018-02-25T06:58:28.679Z,99.99
2018-02-25T06:59:28.642Z,99.99
2018-02-25T07:00:28.608Z,99.99
2018-02-25T07:01:28.317Z,99.99
2018-02-25T07:02:28.288Z,99.99
2018-02-25T07:03:28.261Z,99.99
2018-02-25T07:04:28.507Z,99.99
2018-02-25T07:05:28.202Z,99.99
2018-02-25T07:06:28.440Z,99.99
2018-02-25T07:07:28.422Z,99.99
2018-02-25T07:08:28.117Z,99.99
2018-02-25T07:09:28.366Z,99.99
2018-02-25T07:10:28.058Z,99.99
2018-02-25T07:11:28.302Z,99.99
2018-02-25T07:12:28.002Z,99.99
2018-02-25T07:13:27.976Z,99.99
2018-02-25T07:14:28.239Z,99.99
2018-02-25T07:15:27.921Z,99.99
2018-02-25T07:16:28.160Z,99.99
2018-02-25T07:17:27.867Z,99.99
2018-02-25T07:18:28.100Z,99.99
2018-02-25T07:19:28.074Z,99.99
2018-02-25T07:20:28.045Z,99.99
2018-02-25T07:21:27.751Z,99.99
2018-02-25T07:22:28.005Z,99.99
2018-02-25T07:23:27.963Z,99.99
2018-02-25T07:24:27.667Z,99.99
2018-02-25T07:25:27.902Z,99.99
2018-02-25T07:26:27.877Z,99.99
2018-02-25T07:27:27.581Z,99.99
2018-02-25T07:28:27.562Z,99.99
2018-02-25T07:29:27.525Z,99.99
2018-02-25T07:30:27.762Z,99.99
2018-02-25T07:31:27.467Z,99.99
2018-02-25T07:32:27.453Z,99.99
2018-02-25T07:33:27.423Z,99.99
2018-02-25T07:34:27.387Z,99.99
2018-02-25T07:35:27.358Z,99.99
2018-02-25T07:36:27.341Z,99.99
2018-02-25T07:37:27.299Z,99.99
2018-02-25T07:38:27.273Z,99.99
2018-02-25T07:39:27.505Z,99.99
2018-02-25T07:40:27.218Z,99.99
2018-02-25T07:41:27.453Z,99.99
2018-02-25T07:42:27.534Z,99.99
2018-02-25T07:43:27.133Z,99.99
2018-02-25T07:44:27.371Z,99.99
2018-02-25T07:45:27.343Z,99.99
2018-02-25T07:46:27.047Z,99.99
2018-02-25T07:47:27.026Z,99.99
2018-02-25T07:48:27.356Z,99.99
2018-02-25T07:49:27.230Z,99.99
2018-02-25T07:50:26.943Z,99.99
2018-02-25T07:51:27.223Z,99.99
2018-02-25T07:52:26.880Z,99.99
2018-02-25T07:53:26.856Z,99.99
2018-02-25T07:54:27.093Z,99.99
2018-02-25T07:55:27.068Z,99.99
2018-02-25T07:56:27.038Z,99.99
2018-02-25T07:57:26.749Z,99.99
2018-02-25T07:58:26.729Z,99.99
2018-02-25T07:59:26.701Z,99.99
2018-02-25T08:00:26.937Z,99.99
2018-02-25T08:01:26.908Z,99.99
2018-02-25T08:02:26.607Z,99.99
2018-02-25T08:03:26.876Z,99.99
2018-02-25T08:04:26.550Z,99.99
2018-02-25T08:05:26.522Z,99.99
2018-02-25T08:06:26.761Z,99.99
2018-02-25T08:07:26.733Z,99.99
2018-02-25T08:08:26.502Z,99.99
2018-02-25T08:09:26.687Z,99.99
2018-02-25T08:10:26.648Z,99.99
2018-02-25T08:11:26.361Z,99.99
2018-02-25T08:12:26.600Z,99.99
2018-02-25T08:13:26.572Z,99.99
2018-02-25T08:14:26.547Z,99.99
2018-02-25T08:15:26.513Z,99.99
2018-02-25T08:16:26.235Z,99.99
2018-02-25T08:17:26.267Z,99.99
2018-02-25T08:18:26.429Z,99.99
2018-02-25T08:19:26.138Z,99.99
2018-02-25T08:20:26.111Z,99.99
2018-02-25T08:21:26.083Z,99.99
2018-02-25T08:22:26.324Z,99.99
2018-02-25T08:23:26.028Z,99.99
2018-02-25T08:24:26.317Z,99.99
2018-02-25T08:25:26.251Z,99.99
2018-02-25T08:26:26.238Z,99.99
2018-02-25T08:27:26.186Z,99.99
2018-02-25T08:28:25.894Z,99.99
2018-02-25T08:29:25.868Z,99.99
2018-02-25T08:30:25.844Z,99.99
2018-02-25T08:31:25.847Z,99.99
2018-02-25T08:32:25.795Z,99.99
2018-02-25T08:33:25.763Z,98.95
2018-02-25T08:34:26.012Z,93.51
2018-02-25T08:35:26.089Z,88.88
2018-02-25T08:36:25.692Z,86.42
2018-02-25T08:37:25.675Z,85.38
2018-02-25T08:38:25.904Z,83.72
2018-02-25T08:39:25.880Z,83.21
2018-02-25T08:40:25.856Z,84.16
2018-02-25T08:41:25.837Z,85.05
2018-02-25T08:42:25.548Z,86.57
2018-02-25T08:43:25.519Z,86.76
2018-02-25T08:44:25.496Z,87.51
2018-02-25T08:45:25.471Z,87.42
2018-02-25T08:46:25.449Z,86.14
2018-02-25T08:47:25.434Z,82.02
2018-02-25T08:48:25.405Z,80.22
2018-02-25T08:49:25.693Z,78.56
2018-02-25T08:50:25.623Z,75.09
2018-02-25T08:51:25.608Z,73.96
2018-02-25T08:52:25.313Z,73.11
2018-02-25T08:53:25.293Z,71.97
2018-02-25T08:54:25.272Z,71.12
2018-02-25T08:55:25.519Z,70.3
2018-02-25T08:56:25.498Z,68.59
2018-02-25T08:57:25.220Z,69.07
2018-02-25T08:58:25.190Z,66.83
2018-02-25T08:59:25.441Z,65.97
2018-02-25T09:00:25.152Z,65.5
2018-02-25T09:01:25.131Z,64.46
2018-02-25T09:02:25.382Z,64.27
2018-02-25T09:03:25.358Z,63.79
2018-02-25T09:04:25.074Z,64.17
2018-02-25T09:05:25.103Z,64.14
2018-02-25T09:06:25.037Z,64.81
2018-02-25T09:07:25.016Z,64.42
2018-02-25T09:08:25.000Z,64.84
2018-02-25T09:09:24.984Z,65.56
2018-02-25T09:10:25.219Z,65.66
2018-02-25T09:11:25.211Z,65.28
2018-02-25T09:12:24.915Z,66.03
2018-02-25T09:13:24.898Z,66.28
2018-02-25T09:14:25.152Z,66.38
2018-02-25T09:15:25.125Z,66.67
2018-02-25T09:16:25.110Z,66.38
2018-02-25T09:17:25.087Z,66
2018-02-25T09:18:25.067Z,66
2018-02-25T09:19:25.044Z,66.57
2018-02-25T09:20:24.964Z,66
2018-02-25T09:21:25.004Z,66.19
2018-02-25T09:22:24.992Z,66.13
2018-02-25T09:23:24.699Z,65.94
2018-02-25T09:24:24.679Z,65.37
2018-02-25T09:25:24.700Z,64.71
2018-02-25T09:26:24.646Z,64.17
2018-02-25T09:27:24.892Z,63.51
2018-02-25T09:28:24.871Z,63.23
2018-02-25T09:29:24.868Z,63.48
2018-02-25T09:30:24.847Z,63.2
2018-02-25T09:31:24.542Z,63.29
2018-02-25T09:32:24.789Z,64.39
2018-02-25T09:33:24.772Z,65.34
2018-02-25T09:34:24.489Z,65.44
2018-02-25T09:35:24.734Z,65.25
2018-02-25T09:36:24.713Z,65.44
2018-02-25T09:37:24.688Z,65.34
2018-02-25T09:38:24.669Z,65.25
2018-02-25T09:39:24.648Z,65.44
2018-02-25T09:40:24.631Z,65.81
2018-02-25T09:41:24.662Z,66.44
2018-02-25T09:42:24.321Z,66.06
2018-02-25T09:43:24.308Z,66.06
2018-02-25T09:44:24.552Z,66.25
2018-02-25T09:45:24.526Z,66.44
2018-02-25T09:46:24.242Z,66.79
2018-02-25T09:47:24.223Z,67.26
2018-02-25T09:48:24.467Z,67.3
2018-02-25T09:49:24.255Z,66.19
2018-02-25T09:50:24.446Z,64.96
2018-02-25T09:51:24.415Z,64.58
2018-02-25T09:52:24.120Z,65.44
2018-02-25T09:53:24.368Z,65.31
2018-02-25T09:54:24.121Z,64.49
2018-02-25T09:55:24.336Z,63.67
2018-02-25T09:56:24.310Z,63.7
2018-02-25T09:57:24.292Z,62.18
2018-02-25T09:58:24.274Z,60.5
2018-02-25T09:59:24.264Z,59.94
2018-02-25T10:00:24.238Z,59.94
2018-02-25T10:01:24.221Z,59.37
2018-02-25T10:02:24.202Z,59.66
2018-02-25T10:03:24.180Z,59.25
2018-02-25T10:04:24.171Z,59.25
2018-02-25T10:05:24.155Z,59.78
2018-02-25T10:06:23.863Z,61.21
2018-02-25T10:07:24.113Z,62.21
2018-02-25T10:08:23.820Z,62.97
2018-02-25T10:09:23.805Z,63.54
2018-02-25T10:10:24.052Z,63.35
2018-02-25T10:11:23.763Z,62.5
2018-02-25T10:12:24.017Z,62.31
2018-02-25T10:13:23.726Z,63.35
2018-02-25T10:14:24.081Z,63.6
2018-02-25T10:15:23.691Z,64.26
2018-02-25T10:16:23.932Z,64.36
2018-02-25T10:17:23.911Z,63.89
2018-02-25T10:18:23.625Z,64.07
2018-02-25T10:19:23.605Z,62.78
2018-02-25T10:20:23.586Z,63.07
2018-02-25T10:21:23.832Z,63.92
2018-02-25T10:22:23.814Z,63.16
2018-02-25T10:23:23.528Z,61.87
2018-02-25T10:24:23.508Z,60.76
2018-02-25T10:25:23.491Z,60.28
2018-02-25T10:26:23.472Z,60.19
2018-02-25T10:27:23.716Z,60
2018-02-25T10:28:23.434Z,59.34
2018-02-25T10:29:23.414Z,59.25
2018-02-25T10:30:23.663Z,59.63
2018-02-25T10:31:23.381Z,59.63
2018-02-25T10:32:23.358Z,59.97
2018-02-25T10:33:23.608Z,61.11
2018-02-25T10:34:23.321Z,62.05
2018-02-25T10:35:23.309Z,61.11
2018-02-25T10:36:23.628Z,61.21
2018-02-25T10:37:23.264Z,60.16
2018-02-25T10:38:23.249Z,61.27
2018-02-25T10:39:23.503Z,61.27
2018-02-25T10:40:23.471Z,61.46
2018-02-25T10:41:23.452Z,61.74
2018-02-25T10:42:23.166Z,61.65
2018-02-25T10:43:23.427Z,62.69
2018-02-25T10:44:23.130Z,62.69
2018-02-25T10:45:23.115Z,62.21
2018-02-25T10:46:23.357Z,61.68
2018-02-25T10:47:23.341Z,61.58
2018-02-25T10:48:23.327Z,60.16
2018-02-25T10:49:23.302Z,59.72
2018-02-25T10:50:23.287Z,59.44
2018-02-25T10:51:23.003Z,59.44
2018-02-25T10:52:23.257Z,60
2018-02-25T10:53:23.232Z,59.72
2018-02-25T10:54:23.282Z,59.34
2018-02-25T10:55:22.931Z,58.96
2018-02-25T10:56:22.920Z,59.25
2018-02-25T10:57:22.902Z,58.39
2018-02-25T10:58:22.880Z,58.58
2018-02-25T10:59:23.123Z,58.86
2018-02-25T11:00:22.860Z,59.44
2018-02-25T11:01:23.094Z,58.86
2018-02-25T11:02:22.823Z,58.29
2018-02-25T11:03:22.798Z,58.2
2018-02-25T11:04:23.053Z,58.33
2018-02-25T11:05:22.765Z,57.38
2018-02-25T11:06:23.020Z,56.71
2018-02-25T11:07:22.719Z,57.44
2018-02-25T11:08:22.701Z,56.97
2018-02-25T11:09:22.694Z,57.47
2018-02-25T11:10:22.669Z,56.97
2018-02-25T11:11:22.917Z,57.16
2018-02-25T11:12:22.632Z,57.54
2018-02-25T11:13:22.620Z,58.29
2018-02-25T11:14:22.867Z,58.77
2018-02-25T11:15:22.583Z,58.39
2018-02-25T11:16:22.832Z,58.77
2018-02-25T11:17:22.548Z,58.86
2018-02-25T11:18:22.536Z,58.01
2018-02-25T11:19:22.786Z,57.82
2018-02-25T11:20:22.704Z,57.54
2018-02-25T11:21:22.483Z,57.73
2018-02-25T11:22:22.467Z,57.64
2018-02-25T11:23:22.452Z,58.01
2018-02-25T11:24:22.432Z,56.52
2018-02-25T11:25:22.686Z,55.19
2018-02-25T11:26:22.671Z,55.57
2018-02-25T11:27:22.650Z,54.82
2018-02-25T11:28:22.370Z,55.22
2018-02-25T11:29:22.623Z,54.94
2018-02-25T11:30:22.337Z,54.85
2018-02-25T11:31:22.364Z,54.56
2018-02-25T11:32:22.580Z,54.18
2018-02-25T11:33:22.295Z,54.3
2018-02-25T11:34:22.556Z,52.97
2018-02-25T11:35:22.531Z,53.54
2018-02-25T11:36:22.520Z,53.33
2018-02-25T11:37:22.240Z,53.33
2018-02-25T11:38:22.223Z,53.99
2018-02-25T11:39:22.207Z,53.89
2018-02-25T11:40:22.195Z,53.61
2018-02-25T11:41:22.445Z,52.56
2018-02-25T11:42:22.476Z,52.47
2018-02-25T11:43:22.155Z,52.37
2018-02-25T11:44:22.144Z,52.19
2018-02-25T11:45:22.130Z,52.37
2018-02-25T11:46:22.110Z,53.14
2018-02-25T11:47:22.365Z,52.76
2018-02-25T11:48:22.344Z,52.66
2018-02-25T11:49:22.339Z,53.33
2018-02-25T11:50:22.056Z,52.37
2018-02-25T11:51:22.050Z,52.47
2018-02-25T11:52:22.032Z,52.02
2018-02-25T11:53:22.282Z,52.31
2018-02-25T11:54:22.279Z,52.59
2018-02-25T11:55:22.420Z,51.93
2018-02-25T11:56:21.973Z,51.07
2018-02-25T11:57:21.966Z,50.41
2018-02-25T11:58:21.960Z,50.12
2018-02-25T11:59:22.227Z,50.1
2018-02-25T12:00:21.927Z,50.48
2018-02-25T12:01:22.181Z,50.41
2018-02-25T12:02:22.172Z,50.22
2018-02-25T12:03:21.916Z,50.1
2018-02-25T12:04:22.143Z,51.62
2018-02-25T12:05:22.136Z,51.17
2018-02-25T12:06:22.120Z,51.26
2018-02-25T12:07:22.106Z,50.34
2018-02-25T12:08:21.827Z,49.77
2018-02-25T12:09:22.084Z,49.1
2018-02-25T12:10:22.078Z,49.49
2018-02-25T12:11:21.791Z,49.1
2018-02-25T12:12:21.779Z,49.41
2018-02-25T12:13:22.033Z,48.18
2018-02-25T12:14:22.030Z,48.66
2018-02-25T12:15:22.095Z,48.37
2018-02-25T12:16:22.012Z,47.99
2018-02-25T12:17:21.722Z,47.61
2018-02-25T12:18:21.712Z,46.85
2018-02-25T12:19:21.766Z,47.13
2018-02-25T12:20:21.692Z,47.33
2018-02-25T12:21:21.951Z,46.28
2018-02-25T12:22:21.952Z,46.47
2018-02-25T12:23:21.661Z,47.52
2018-02-25T12:24:21.655Z,47.52
2018-02-25T12:25:21.638Z,47.23
2018-02-25T12:26:21.632Z,47.63
2018-02-25T12:27:21.898Z,47.34
2018-02-25T12:28:21.879Z,46.59
2018-02-25T12:29:21.602Z,45.64
2018-02-25T12:30:21.860Z,45.73
2018-02-25T12:31:21.851Z,45.09
2018-02-25T12:32:21.843Z,44.33
2018-02-25T12:33:21.832Z,44.61
2018-02-25T12:34:21.563Z,44.16
2018-02-25T12:35:21.815Z,43.85
2018-02-25T12:36:21.545Z,44.9
2018-02-25T12:37:21.798Z,44.45
2018-02-25T12:38:21.523Z,43.59
2018-02-25T12:39:21.515Z,43.3
2018-02-25T12:40:21.785Z,43.21
2018-02-25T12:41:21.513Z,43.4
2018-02-25T12:42:21.759Z,43.4
2018-02-25T12:43:21.484Z,43.97
2018-02-25T12:44:21.743Z,43.38
2018-02-25T12:45:21.471Z,44.42
2018-02-25T12:46:21.462Z,45.09
2018-02-25T12:47:21.719Z,45.37
2018-02-25T12:48:21.446Z,45.28
2018-02-25T12:49:21.439Z,45.28
2018-02-25T12:50:21.444Z,45.56
2018-02-25T12:51:21.704Z,45.3
2018-02-25T12:52:21.419Z,45.21
2018-02-25T12:53:21.993Z,44.73
2018-02-25T12:54:21.402Z,45.01